Time;durP1;ratioP1;P1;durP2;ratioP2;P2;SDS_P1;SDS_P2;PMS_P1;PMS_P2;Temp;Humidity;BMP_temperature;BMP_pressure;BME280_temperature;BME280_humidity;BME280_pressure;Samples;Min_cycle;Max_cycle;Signal;HPM_P1;HPM_P2
2021/05/12 00:02:16;;;;;;;6.60;3.55;;;;;;;13.66;98.33;100706.80;1682614;83;21186;-64
2021/05/12 00:04:43;;;;;;;9.73;4.55;;;;;;;13.66;97.93;100704.11;1701759;82;21126;-64
2021/05/12 00:07:11;;;;;;;8.05;3.85;;;;;;;13.65;97.68;100702.36;1716809;82;21742;-64
2021/05/12 00:09:38;;;;;;;5.20;3.67;;;;;;;13.66;97.60;100704.11;1711090;82;21117;-64
2021/05/12 00:12:06;;;;;;;5.28;3.67;;;;;;;13.67;97.28;100694.19;1710690;82;21083;-64
2021/05/12 00:14:37;;;;;;;6.67;3.80;;;;;;;13.65;96.92;100694.28;1710999;82;21079;-63
2021/05/12 00:17:04;;;;;;;5.30;3.47;;;;;;;13.64;96.87;100693.88;1710634;82;21592;-65
2021/05/12 00:19:34;;;;;;;6.35;3.70;;;;;;;13.63;96.76;100704.26;1740649;80;21065;-64
2021/05/12 00:24:39;;;;;;;9.38;3.85;;;;;;;13.56;96.68;100692.02;1682088;83;21740;-63
2021/05/12 00:27:07;;;;;;;10.98;3.62;;;;;;;13.53;96.58;100690.36;1682215;83;21269;-65
2021/05/12 00:29:34;;;;;;;6.10;3.50;;;;;;;13.54;96.48;100693.91;1682526;83;21070;-65
2021/05/12 00:32:01;;;;;;;6.90;3.98;;;;;;;13.51;96.53;100687.33;1682126;83;21866;-65
2021/05/12 00:34:29;;;;;;;4.85;3.20;;;;;;;13.50;96.56;100678.85;1693138;82;22185;-65
2021/05/12 00:36:56;;;;;;;8.15;3.30;;;;;;;13.50;96.77;100685.59;1690668;83;21090;-64
2021/05/12 00:39:23;;;;;;;8.28;3.87;;;;;;;13.48;96.63;100691.03;1668720;83;21146;-62
2021/05/12 00:41:50;;;;;;;12.25;4.05;;;;;;;13.45;96.88;100687.14;1710685;83;21496;-65
2021/05/12 00:44:19;;;;;;;7.95;4.30;;;;;;;13.46;97.21;100688.43;1703010;81;21971;-65
2021/05/12 00:46:47;;;;;;;8.75;4.33;;;;;;;13.47;97.33;100691.98;1725582;81;21100;-64
2021/05/12 00:49:16;;;;;;;7.17;4.33;;;;;;;13.43;97.38;100688.58;1725616;81;21024;-63
2021/05/12 00:51:45;;;;;;;7.72;4.67;;;;;;;13.41;97.84;100685.52;1725914;81;21066;-64
2021/05/12 00:54:12;;;;;;;10.80;5.00;;;;;;;13.40;98.03;100693.20;1724595;81;21389;-62
2021/05/12 00:56:41;;;;;;;6.97;5.20;;;;;;;13.35;98.12;100680.44;1697191;83;21879;-65
2021/05/12 00:59:08;;;;;;;9.15;4.78;;;;;;;13.33;98.48;100681.84;1696322;83;21077;-64
2021/05/12 01:01:35;;;;;;;5.90;4.87;;;;;;;13.33;98.64;100692.61;1696919;83;21033;-64
2021/05/12 01:04:04;;;;;;;7.47;4.62;;;;;;;13.31;98.62;100689.13;1696302;83;21116;-65
2021/05/12 01:06:35;;;;;;;7.25;5.12;;;;;;;13.27;98.81;100687.07;1713729;81;21105;-64
2021/05/12 01:09:05;;;;;;;13.48;5.45;;;;;;;13.27;99.16;100679.45;1721894;81;22117;-65
2021/05/12 01:11:32;;;;;;;8.65;5.33;;;;;;;13.27;99.10;100675.41;1716579;81;21150;-64
2021/05/12 01:14:00;;;;;;;8.43;5.58;;;;;;;13.24;99.28;100671.53;1696623;83;21086;-65
2021/05/12 01:16:27;;;;;;;12.70;5.10;;;;;;;13.22;99.70;100674.77;1692910;83;21075;-64
2021/05/12 01:18:54;;;;;;;9.88;6.00;;;;;;;13.21;100.00;100671.67;1692941;83;21045;-62
2021/05/12 01:21:21;;;;;;;12.07;5.85;;;;;;;13.20;100.00;100659.16;1692994;83;22379;-64
2021/05/12 01:23:49;;;;;;;12.13;5.60;;;;;;;13.18;100.00;100665.49;1692436;83;21101;-64
2021/05/12 01:26:20;;;;;;;15.63;5.92;;;;;;;13.21;100.00;100662.25;1692039;83;21069;-65
2021/05/12 01:28:49;;;;;;;13.62;6.58;;;;;;;13.21;100.00;100668.49;1701214;81;21054;-64
2021/05/12 01:31:36;;;;;;;8.63;5.20;;;;;;;13.20;100.00;100675.31;1725961;81;21061;-65
2021/05/12 01:34:05;;;;;;;10.25;5.22;;;;;;;13.20;100.00;100673.48;1742664;81;21468;-64
2021/05/12 01:36:32;;;;;;;9.15;4.92;;;;;;;13.22;100.00;100672.08;1706429;83;21097;-63
2021/05/12 01:39:00;;;;;;;9.43;4.28;;;;;;;13.17;100.00;100670.48;1696673;81;21080;-64
2021/05/12 01:41:28;;;;;;;13.70;4.75;;;;;;;13.16;100.00;100674.58;1697088;83;21081;-64
2021/05/12 01:43:55;;;;;;;8.78;5.05;;;;;;;13.14;100.00;100670.59;1696198;82;21098;-63
2021/05/12 01:46:23;;;;;;;9.18;5.05;;;;;;;13.13;100.00;100667.50;1713942;82;21053;-63
2021/05/12 01:48:50;;;;;;;10.38;5.17;;;;;;;13.09;100.00;100662.36;1735200;81;21121;-64
2021/05/12 01:51:17;;;;;;;8.83;4.72;;;;;;;13.06;100.00;100663.37;1711062;82;21050;-64
2021/05/12 01:53:44;;;;;;;8.30;4.83;;;;;;;13.05;100.00;100662.97;1711420;82;21101;-64
2021/05/12 01:56:12;;;;;;;11.38;4.67;;;;;;;13.01;100.00;100656.84;1711137;81;21119;-64
2021/05/12 01:58:39;;;;;;;9.23;4.87;;;;;;;12.99;100.00;100660.57;1648998;85;22657;-63
2021/05/12 02:01:06;;;;;;;7.00;4.30;;;;;;;12.95;100.00;100652.25;1648734;85;21142;-66
2021/05/12 02:03:33;;;;;;;8.40;4.53;;;;;;;12.90;100.00;100656.48;1649919;84;21065;-64
2021/05/12 02:06:00;;;;;;;9.73;4.47;;;;;;;12.87;100.00;100665.56;1657240;84;21369;-64
2021/05/12 02:08:28;;;;;;;7.92;3.90;;;;;;;12.88;100.00;100665.96;1670707;83;21125;-63
2021/05/12 02:10:59;;;;;;;9.73;4.10;;;;;;;12.88;100.00;100667.80;1647547;84;23475;-64
2021/05/12 02:13:29;;;;;;;6.75;3.87;;;;;;;12.85;100.00;100671.48;1670945;84;21133;-64
2021/05/12 02:15:56;;;;;;;5.10;3.42;;;;;;;12.86;100.00;100676.41;1648293;84;21216;-63
2021/05/12 02:18:23;;;;;;;8.70;3.40;;;;;;;12.86;100.00;100671.89;1671452;84;21141;-64
2021/05/12 02:20:50;;;;;;;5.92;3.22;;;;;;;12.85;100.00;100670.63;1651439;85;21141;-64
2021/05/12 02:23:19;;;;;;;8.90;3.90;;;;;;;12.87;100.00;100678.16;1643702;85;21127;-63
2021/05/12 02:25:46;;;;;;;5.87;3.25;;;;;;;12.89;100.00;100673.58;1643866;85;21054;-63
2021/05/12 02:28:14;;;;;;;8.65;3.77;;;;;;;12.91;100.00;100669.00;1621783;85;21192;-64
2021/05/12 02:30:41;;;;;;;11.70;3.67;;;;;;;12.94;100.00;100666.65;1644174;85;21046;-63
2021/05/12 02:33:09;;;;;;;8.45;3.45;;;;;;;12.99;100.00;100671.34;1643874;85;21152;-63
2021/05/12 02:35:36;;;;;;;7.17;3.70;;;;;;;12.98;100.00;100664.21;1662033;85;21515;-64
2021/05/12 02:38:03;;;;;;;6.72;3.67;;;;;;;13.01;100.00;100664.91;1644381;85;21162;-64
2021/05/12 02:40:30;;;;;;;16.87;4.08;;;;;;;13.04;100.00;100661.22;1645382;85;21569;-64
2021/05/12 02:42:58;;;;;;;13.75;3.70;;;;;;;13.08;100.00;100665.51;1623218;86;21120;-65
2021/05/12 02:45:25;;;;;;;21.73;3.62;;;;;;;13.10;100.00;100669.00;1621979;86;21105;-65
2021/05/12 02:47:59;;;;;;;17.90;3.15;;;;;;;13.16;99.99;100665.16;1622453;86;21179;-63
2021/05/12 02:50:33;;;;;;;21.00;3.33;;;;;;;13.23;98.97;100662.56;1636059;86;21133;-63
2021/05/12 02:53:00;;;;;;;23.92;3.17;;;;;;;13.27;96.86;100664.64;1634851;86;21110;-63
2021/05/12 02:55:28;;;;;;;18.07;3.47;;;;;;;13.33;95.71;100665.23;1636290;86;21181;-64
2021/05/12 02:57:55;;;;;;;9.90;2.25;;;;;;;13.44;93.87;100674.17;1634775;86;21425;-64
2021/05/12 03:00:26;;;;;;;26.80;2.30;;;;;;;13.50;91.38;100665.39;1635430;86;22681;-64
2021/05/12 03:02:53;;;;;;;20.23;2.08;;;;;;;13.54;88.43;100666.52;1635171;86;21141;-64
2021/05/12 03:05:21;;;;;;;15.28;2.37;;;;;;;13.59;85.84;100662.23;1634909;86;21125;-63
2021/05/12 03:07:49;;;;;;;29.42;3.47;;;;;;;13.64;83.85;100669.64;1635501;86;21150;-64
2021/05/12 03:10:18;;;;;;;28.52;2.47;;;;;;;13.67;83.25;100677.56;1635855;84;21127;-64
2021/05/12 03:12:46;;;;;;;18.32;2.08;;;;;;;13.71;82.34;100672.41;1678277;84;21622;-64
2021/05/12 03:15:16;;;;;;;15.13;2.27;;;;;;;13.75;81.26;100678.53;1678107;84;22275;-64
2021/05/12 03:17:44;;;;;;;14.23;2.35;;;;;;;13.79;80.44;100683.27;1678375;84;21556;-64
2021/05/12 03:20:13;;;;;;;13.98;2.22;;;;;;;13.81;79.58;100680.03;1678087;84;21146;-64
2021/05/12 03:22:40;;;;;;;6.22;2.17;;;;;;;13.84;79.50;100682.59;1662581;84;21110;-65
2021/05/12 03:25:09;;;;;;;6.03;2.05;;;;;;;13.90;79.92;100679.59;1677910;83;21156;-63
2021/05/12 03:27:36;;;;;;;7.50;2.50;;;;;;;14.03;82.61;100680.70;1677891;84;21130;-64
2021/05/12 03:30:06;;;;;;;5.65;2.95;;;;;;;14.13;84.51;100672.16;1677962;84;21145;-64
2021/05/12 03:32:33;;;;;;;4.17;2.70;;;;;;;14.24;85.93;100675.65;1678575;84;21109;-66
2021/05/12 03:35:01;;;;;;;4.85;2.75;;;;;;;14.32;86.74;100672.95;1676205;84;21082;-64
2021/05/12 03:37:28;;;;;;;4.72;2.45;;;;;;;14.35;87.18;100675.09;1692575;84;21066;-65
2021/05/12 03:39:55;;;;;;;4.67;2.87;;;;;;;14.31;87.44;100665.81;1655542;85;21105;-63
2021/05/12 03:42:22;;;;;;;9.68;2.67;;;;;;;14.27;87.50;100670.98;1635675;86;21192;-63
2021/05/12 03:44:49;;;;;;;7.22;2.52;;;;;;;14.23;87.57;100665.32;1618541;86;21257;-63
2021/05/12 03:47:18;;;;;;;6.87;2.62;;;;;;;14.21;87.75;100678.51;1637187;86;21134;-63
2021/05/12 03:49:45;;;;;;;4.70;2.15;;;;;;;14.20;87.26;100671.37;1636950;86;23068;-64
2021/05/12 03:52:13;;;;;;;4.87;2.12;;;;;;;14.22;87.33;100669.47;1666085;86;21106;-64
2021/05/12 03:54:40;;;;;;;3.35;2.08;;;;;;;14.26;86.78;100677.33;1637753;86;21026;-63
2021/05/12 03:57:07;;;;;;;3.25;1.92;;;;;;;14.35;86.19;100675.09;1636791;86;21141;-64
2021/05/12 03:59:34;;;;;;;4.28;2.08;;;;;;;14.46;84.83;100664.59;1637153;86;21093;-66
2021/05/12 04:02:01;;;;;;;3.52;1.70;;;;;;;14.55;83.47;100674.92;1638162;86;21741;-64
2021/05/12 04:04:31;;;;;;;4.47;1.90;;;;;;;14.61;82.11;100676.42;1642044;84;21282;-65
2021/05/12 04:06:58;;;;;;;5.60;1.77;;;;;;;14.68;81.02;100687.73;1664159;83;21642;-63
2021/05/12 04:09:25;;;;;;;6.28;1.75;;;;;;;14.70;80.21;100681.78;1664135;83;21094;-63
2021/05/12 04:11:52;;;;;;;4.67;1.82;;;;;;;14.74;80.12;100678.02;1664206;84;21758;-65
2021/05/12 04:14:19;;;;;;;3.80;2.00;;;;;;;14.71;80.76;100672.80;1664226;83;22838;-64
2021/05/12 04:16:52;;;;;;;6.10;2.10;;;;;;;14.66;81.12;100685.60;1664548;83;21034;-63
2021/05/12 04:19:15;;;;;;;4.40;1.90;;;;;;;14.56;81.35;100691.50;1649662;85;21090;-64
2021/05/12 04:21:42;;;;;;;3.77;1.98;;;;;;;14.43;81.51;100690.39;1637573;86;21167;-63
2021/05/12 04:24:10;;;;;;;9.13;2.35;;;;;;;14.33;81.62;100694.92;1637126;86;21097;-64
2021/05/12 04:26:36;;;;;;;4.20;2.00;;;;;;;14.16;81.86;100704.34;1637570;86;22730;-64
2021/05/12 04:29:05;;;;;;;5.20;2.27;;;;;;;14.04;81.96;100697.30;1636774;86;21117;-62
2021/05/12 04:31:33;;;;;;;3.92;1.80;;;;;;;13.96;81.65;100705.37;1636985;86;22178;-64
2021/05/12 04:34:00;;;;;;;5.75;1.92;;;;;;;13.86;81.75;100707.64;1639027;84;21117;-64
2021/05/12 04:36:28;;;;;;;5.50;1.87;;;;;;;13.78;81.68;100719.25;1681745;84;21576;-63
2021/05/12 04:38:56;;;;;;;3.60;2.00;;;;;;;13.68;81.23;100699.52;1686118;83;22839;-63
2021/05/12 04:41:24;;;;;;;3.77;2.05;;;;;;;13.59;80.77;100699.48;1664092;84;21113;-63
2021/05/12 04:43:54;;;;;;;4.72;2.70;;;;;;;13.50;80.71;100701.75;1664389;84;21122;-63
2021/05/12 04:46:20;;;;;;;3.52;1.80;;;;;;;13.39;79.33;100691.00;1664106;84;21353;-64
2021/05/12 04:48:47;;;;;;;7.10;2.10;;;;;;;13.34;79.19;100701.09;1663999;84;21090;-65
2021/05/12 04:51:14;;;;;;;6.33;2.05;;;;;;;13.29;78.76;100692.36;1664089;84;22619;-62
2021/05/12 04:53:42;;;;;;;3.42;1.60;;;;;;;13.28;78.79;100698.23;1664916;84;21166;-63
2021/05/12 04:56:10;;;;;;;2.42;1.80;;;;;;;13.31;78.51;100693.16;1685934;83;21125;-64
2021/05/12 04:58:38;;;;;;;4.30;1.75;;;;;;;13.32;78.86;100698.95;1685825;83;21178;-63
2021/05/12 05:01:05;;;;;;;4.85;2.30;;;;;;;13.34;78.01;100710.52;1686100;83;21118;-62
2021/05/12 05:03:34;;;;;;;5.62;2.25;;;;;;;13.34;76.84;100715.90;1693833;84;21510;-63
2021/05/12 05:06:01;;;;;;;5.20;2.10;;;;;;;13.37;76.43;100729.21;1660567;84;21117;-63
2021/05/12 05:08:28;;;;;;;3.45;2.00;;;;;;;13.48;76.00;100717.11;1637524;86;21141;-64
2021/05/12 05:10:55;;;;;;;4.45;2.20;;;;;;;13.59;74.93;100726.88;1657245;84;21102;-64
2021/05/12 05:13:23;;;;;;;4.67;2.40;;;;;;;13.67;74.03;100723.36;1651284;85;21026;-63
2021/05/12 05:15:51;;;;;;;4.12;2.22;;;;;;;13.75;73.23;100735.97;1667741;83;21165;-63
2021/05/12 05:18:18;;;;;;;4.78;2.00;;;;;;;13.79;71.68;100735.36;1667553;84;21746;-64
2021/05/12 05:20:45;;;;;;;4.20;2.02;;;;;;;13.77;70.54;100733.22;1667418;84;21097;-64
2021/05/12 05:23:12;;;;;;;6.85;2.50;;;;;;;13.74;70.95;100745.01;1667310;84;21097;-64
2021/05/12 05:25:39;;;;;;;3.85;2.40;;;;;;;13.73;70.58;100744.61;1668061;84;21176;-64
2021/05/12 05:28:07;;;;;;;5.75;2.60;;;;;;;13.72;70.90;100744.20;1682159;82;23375;-63
2021/05/12 05:30:34;;;;;;;6.15;2.40;;;;;;;13.77;70.61;100739.06;1684549;83;21450;-63
2021/05/12 05:33:20;;;;;;;5.22;2.47;;;;;;;13.75;70.18;100744.05;1712570;83;21129;-64
2021/05/12 05:36:06;;;;;;;7.28;2.52;;;;;;;13.64;70.15;100745.06;1689986;82;21141;-64
2021/05/12 05:38:51;;;;;;;5.55;2.60;;;;;;;13.56;70.01;100727.03;1679521;83;21069;-62
2021/05/12 05:41:36;;;;;;;5.62;3.10;;;;;;;13.49;70.22;100722.89;1679520;83;21081;-64
2021/05/12 05:44:22;;;;;;;4.20;2.50;;;;;;;13.37;70.69;100729.21;1695228;83;21121;-63
2021/05/12 05:47:08;;;;;;;5.20;2.98;;;;;;;13.27;71.55;100726.56;1698845;81;21129;-62
2021/05/12 05:49:53;;;;;;;6.10;2.83;;;;;;;13.20;71.47;100734.54;1704276;81;21085;-66
2021/05/12 05:52:39;;;;;;;4.47;2.58;;;;;;;13.15;70.67;100734.28;1704275;81;21106;-67
2021/05/12 05:55:24;;;;;;;;;;;;;;;13.12;70.21;100724.98;1713601;82;21145;-67
2021/05/12 05:58:10;;;;;;;4.67;2.60;;;;;;;13.16;70.84;100727.06;1700827;81;20318;-66
2021/05/12 06:00:57;;;;;;;4.62;3.08;;;;;;;13.22;70.49;100725.91;1730096;80;21065;-65
2021/05/12 06:03:24;;;;;;;5.75;3.30;;;;;;;13.35;69.73;100728.41;1717010;81;20971;-70
2021/05/12 06:06:09;;;;;;;5.03;2.50;;;;;;;13.46;70.23;100723.44;1702118;81;21125;-67
2021/05/12 06:08:55;;;;;;;7.20;2.80;;;;;;;13.53;69.12;100716.41;1717527;81;22033;-67
2021/05/12 06:11:40;;;;;;;3.17;2.47;;;;;;;13.54;68.01;100702.88;1717604;81;21093;-65
2021/05/12 06:14:29;;;;;;;6.15;2.67;;;;;;;13.54;68.39;100710.96;1716852;81;21132;-64
2021/05/12 06:17:16;;;;;;;4.10;2.55;;;;;;;13.57;68.49;100722.93;1718412;81;21129;-65
2021/05/12 06:20:11;;;;;;;4.40;2.37;;;;;;;13.53;67.48;100727.18;1722832;81;20966;-65
2021/05/12 06:23:10;;;;;;;3.00;2.62;;;;;;;13.46;68.08;100722.09;1693329;81;21894;-65
2021/05/12 06:25:59;;;;;;;5.25;2.58;;;;;;;13.39;68.47;100717.93;1685854;80;21027;-66
2021/05/12 06:28:44;;;;;;;7.87;2.87;;;;;;;13.33;67.66;100720.89;1724095;80;21093;-65
2021/05/12 06:31:29;;;;;;;;;;;;;;;13.35;67.67;100731.11;1724747;81;21507;-65
2021/05/12 06:34:14;;;;;;;3.27;2.30;;;;;;;13.41;67.72;100721.87;1739361;81;20577;-65
2021/05/12 06:36:59;;;;;;;6.12;3.10;;;;;;;13.42;68.46;100731.23;1712396;81;23510;-63
2021/05/12 06:39:46;;;;;;;5.28;2.50;;;;;;;13.45;68.81;100739.20;1712101;81;20954;-64
2021/05/12 06:42:25;;;;;;;4.30;2.22;;;;;;;13.55;68.83;100746.83;1704305;81;21739;-65
2021/05/12 06:45:11;;;;;;;6.33;2.10;;;;;;;13.65;68.37;100733.34;1731786;81;20958;-61
2021/05/12 06:48:01;;;;;;;3.55;2.00;;;;;;;13.86;66.13;100730.55;1716102;81;21131;-65
2021/05/12 06:50:53;;;;;;;2.37;1.90;;;;;;;14.10;64.32;100727.58;1690696;81;21495;-60
2021/05/12 06:53:34;;;;;;;6.20;1.80;;;;;;;14.29;63.24;100728.41;1705195;81;20974;-62
2021/05/12 06:56:04;;;;;;;2.80;1.82;;;;;;;14.56;62.50;100744.56;1738373;81;21451;-65
2021/05/12 06:58:38;;;;;;;3.35;1.95;;;;;;;14.66;62.81;100732.36;1739316;81;21049;-65
2021/05/12 07:01:14;;;;;;;5.22;1.85;;;;;;;14.71;63.28;100735.72;1709326;81;21044;-66
2021/05/12 07:03:42;;;;;;;3.37;1.80;;;;;;;14.82;62.18;100731.09;1715296;81;22880;-65
2021/05/12 07:06:09;;;;;;;3.02;1.77;;;;;;;14.85;60.95;100743.08;1701664;81;21111;-65
2021/05/12 07:08:37;;;;;;;3.08;1.70;;;;;;;14.78;60.87;100752.46;1720971;81;21065;-65
2021/05/12 07:11:05;;;;;;;5.10;1.80;;;;;;;14.72;61.42;100739.30;1739053;80;21097;-65
2021/05/12 07:13:31;;;;;;;3.47;1.70;;;;;;;14.67;61.58;100747.59;1684142;81;21460;-65
2021/05/12 07:15:59;;;;;;;5.80;1.98;;;;;;;14.58;61.35;100732.75;1714713;81;21489;-64
2021/05/12 07:18:26;;;;;;;4.50;1.80;;;;;;;14.44;62.26;100733.48;1717842;81;21470;-64
2021/05/12 07:20:53;;;;;;;2.25;1.85;;;;;;;14.33;62.63;100725.94;1705732;81;21535;-64
2021/05/12 07:23:22;;;;;;;5.22;1.82;;;;;;;14.29;62.82;100729.75;1707661;81;21114;-64
2021/05/12 07:25:48;;;;;;;2.95;1.80;;;;;;;14.29;63.42;100739.19;1705935;81;21085;-64
2021/05/12 07:28:16;;;;;;;6.15;1.70;;;;;;;14.30;62.82;100734.19;1736961;81;21424;-66
2021/05/12 07:30:47;;;;;;;3.47;1.72;;;;;;;14.35;62.84;100737.98;1718067;81;20922;-64
2021/05/12 07:33:14;;;;;;;6.08;1.90;;;;;;;14.48;63.13;100736.90;1705529;81;20942;-64
2021/05/12 07:35:40;;;;;;;2.58;1.98;;;;;;;14.67;62.70;100739.96;1721190;81;21463;-65
2021/05/12 07:38:06;;;;;;;2.15;1.70;;;;;;;14.71;62.12;100741.61;1708222;81;21018;-65
2021/05/12 07:40:35;;;;;;;7.58;1.80;;;;;;;14.73;62.03;100746.44;1718090;82;22753;-65
2021/05/12 07:43:06;;;;;;;2.08;1.60;;;;;;;14.75;61.50;100732.39;1707165;81;21529;-66
2021/05/12 07:45:32;;;;;;;2.75;1.85;;;;;;;14.74;61.61;100752.23;1703907;81;21582;-66
2021/05/12 07:47:58;;;;;;;3.60;1.52;;;;;;;14.77;60.91;100753.42;1703910;81;21699;-66
2021/05/12 07:50:25;;;;;;;2.80;1.60;;;;;;;14.73;60.77;100749.14;1714865;81;21137;-69
2021/05/12 07:52:52;;;;;;;2.87;1.40;;;;;;;14.70;60.54;100744.73;1717626;81;22713;-66
2021/05/12 07:55:18;;;;;;;4.78;1.60;;;;;;;14.69;60.34;100735.35;1702775;81;21348;-71
2021/05/12 07:57:45;;;;;;;2.10;1.62;;;;;;;14.77;60.45;100756.11;1734691;81;21858;-65
2021/05/12 08:00:14;;;;;;;2.67;1.47;;;;;;;14.85;60.02;100739.02;1706626;81;21777;-67
2021/05/12 08:02:41;;;;;;;3.27;1.70;;;;;;;14.88;60.17;100734.81;1721553;81;21002;-67
2021/05/12 08:05:09;;;;;;;3.95;1.82;;;;;;;14.88;59.91;100724.02;1731475;81;22744;-64
2021/05/12 08:07:37;;;;;;;3.70;1.70;;;;;;;14.97;60.04;100727.19;1709073;81;21542;-65
2021/05/12 08:10:05;;;;;;;4.42;1.50;;;;;;;15.07;60.24;100724.87;1731742;81;22668;-65
2021/05/12 08:12:37;;;;;;;2.17;1.57;;;;;;;15.18;60.05;100722.44;1709309;81;21420;-66
2021/05/12 08:15:05;;;;;;;3.95;1.70;;;;;;;15.25;59.77;100723.87;1730036;81;20922;-65
2021/05/12 08:17:32;;;;;;;4.75;1.90;;;;;;;15.18;60.72;100711.17;1714824;81;23221;-66
2021/05/12 08:20:00;;;;;;;4.53;1.98;;;;;;;15.13;61.42;100719.98;1719301;81;21004;-67
2021/05/12 08:22:26;;;;;;;3.37;2.00;;;;;;;15.13;61.18;100725.37;1708366;81;20982;-66
2021/05/12 08:24:53;;;;;;;3.30;1.72;;;;;;;15.16;59.81;100719.84;1709769;81;21033;-64
2021/05/12 08:27:19;;;;;;;3.12;2.02;;;;;;;15.15;59.49;100726.20;1717218;81;20942;-64
2021/05/12 08:29:46;;;;;;;6.53;1.80;;;;;;;15.13;59.71;100725.37;1706922;81;23168;-63
2021/05/12 08:32:15;;;;;;;2.80;1.92;;;;;;;15.10;59.73;100714.75;1708342;81;21117;-65
2021/05/12 08:34:43;;;;;;;8.30;1.75;;;;;;;15.09;59.95;100715.70;1734021;80;21145;-68
2021/05/12 08:37:10;;;;;;;3.65;1.87;;;;;;;15.03;59.86;100710.66;1713063;81;21013;-65
2021/05/12 08:39:37;;;;;;;13.80;2.12;;;;;;;15.00;58.74;100701.37;1684963;83;20952;-66
2021/05/12 08:42:05;;;;;;;3.00;1.77;;;;;;;15.06;59.13;100702.38;1705217;81;21037;-64
2021/05/12 08:44:33;;;;;;;1.72;1.62;;;;;;;15.14;59.14;100709.60;1716640;81;21058;-65
2021/05/12 08:47:01;;;;;;;2.40;1.57;;;;;;;15.22;59.10;100695.65;1720329;82;21086;-64
2021/05/12 08:49:28;;;;;;;3.72;1.85;;;;;;;15.26;59.64;100692.31;1698543;82;21254;-65
2021/05/12 08:51:55;;;;;;;7.03;1.75;;;;;;;15.28;58.05;100692.62;1689855;82;21146;-66
2021/05/12 08:54:21;;;;;;;3.37;1.87;;;;;;;15.28;57.78;100687.69;1698164;82;22421;-65
2021/05/12 08:56:48;;;;;;;2.17;1.72;;;;;;;15.33;59.03;100692.34;1696171;81;21075;-66
2021/05/12 08:59:16;;;;;;;4.67;1.70;;;;;;;15.36;58.64;100689.47;1696518;82;21527;-65
2021/05/12 09:01:42;;;;;;;4.08;1.60;;;;;;;15.34;59.32;100681.94;1696006;82;21802;-66
2021/05/12 09:04:09;;;;;;;6.87;1.40;;;;;;;15.42;57.65;100683.75;1687608;82;21098;-66
2021/05/12 09:06:37;;;;;;;14.68;1.50;;;;;;;15.52;56.44;100685.45;1698886;82;23355;-66
2021/05/12 09:09:08;;;;;;;8.13;1.20;;;;;;;15.62;52.80;100687.15;1694064;82;21122;-65
2021/05/12 09:11:35;;;;;;;2.65;1.12;;;;;;;15.60;51.71;100699.38;1711194;82;20913;-65
2021/05/12 09:14:02;;;;;;;3.10;1.27;;;;;;;15.64;52.79;100681.17;1703546;82;21562;-65
2021/05/12 09:16:30;;;;;;;1.85;1.20;;;;;;;15.73;52.41;100690.58;1710676;81;20904;-67
2021/05/12 09:19:09;;;;;;;5.37;1.00;;;;;;;15.79;52.01;100687.98;1681858;82;22786;-67
2021/05/12 09:21:48;;;;;;;4.47;1.02;;;;;;;15.74;51.19;100690.48;1686613;82;20977;-66
2021/05/12 09:24:37;;;;;;;2.45;1.10;;;;;;;15.78;51.44;100697.05;1696463;82;21511;-66
2021/05/12 09:27:15;;;;;;;1.47;0.90;;;;;;;15.76;51.01;100695.31;1693087;82;20975;-67
2021/05/12 09:29:42;;;;;;;2.40;1.07;;;;;;;15.80;50.76;100693.78;1705217;82;20983;-67
2021/05/12 09:32:15;;;;;;;2.50;1.25;;;;;;;15.88;50.92;100694.22;1702047;82;22952;-66
2021/05/12 09:34:54;;;;;;;4.08;1.17;;;;;;;15.92;51.73;100689.55;1694269;82;21457;-67
2021/05/12 09:37:39;;;;;;;1.70;1.10;;;;;;;15.93;52.73;100678.63;1719234;82;21024;-69
2021/05/12 09:40:18;;;;;;;1.95;1.25;;;;;;;16.07;53.52;100683.22;1696463;82;21050;-65
2021/05/12 09:42:50;;;;;;;2.22;1.20;;;;;;;16.28;52.10;100677.02;1708013;82;21634;-61
2021/05/12 09:45:23;;;;;;;1.17;1.07;;;;;;;16.45;51.50;100685.92;1704090;82;21133;-63
2021/05/12 09:47:53;;;;;;;2.42;1.20;;;;;;;16.58;50.02;100680.16;1710180;81;21162;-64
2021/05/12 09:50:25;;;;;;;2.58;1.45;;;;;;;16.58;49.29;100684.23;1684718;82;21130;-68
2021/05/12 09:52:56;;;;;;;1.32;1.07;;;;;;;16.53;51.09;100681.41;1689923;82;21718;-68
2021/05/12 09:55:47;;;;;;;1.92;1.10;;;;;;;16.51;50.99;100677.45;1693054;82;21217;-68
2021/05/12 09:58:18;;;;;;;1.42;1.12;;;;;;;16.47;50.35;100683.53;1697303;82;21415;-70
2021/05/12 10:00:48;;;;;;;1.55;1.02;;;;;;;16.50;50.18;100687.89;1711896;82;21839;-68
2021/05/12 10:03:14;;;;;;;1.55;1.10;;;;;;;16.52;48.39;100694.08;1692946;82;21121;-69
2021/05/12 10:05:55;;;;;;;1.55;1.00;;;;;;;16.53;48.30;100679.59;1698814;82;21018;-69
2021/05/12 10:08:28;;;;;;;3.00;1.30;;;;;;;16.60;48.20;100685.00;1692381;82;21333;-67
2021/05/12 10:11:00;;;;;;;3.85;1.20;;;;;;;16.76;47.18;100678.14;1715848;82;22713;-67
2021/05/12 10:13:27;;;;;;;4.90;1.20;;;;;;;16.85;47.38;100679.41;1700939;82;21488;-67
2021/05/12 10:15:53;;;;;;;1.37;1.25;;;;;;;16.82;47.62;100676.89;1677369;82;21321;-66
2021/05/12 10:18:19;;;;;;;1.40;1.10;;;;;;;16.84;48.24;100674.96;1688629;82;22227;-68
2021/05/12 10:20:46;;;;;;;4.42;1.32;;;;;;;16.88;48.90;100675.16;1695213;81;21038;-69
2021/05/12 10:23:12;;;;;;;1.20;1.10;;;;;;;16.90;49.51;100677.27;1694742;82;21797;-67
2021/05/12 10:25:39;;;;;;;2.75;1.15;;;;;;;16.88;49.78;100675.16;1681961;82;21209;-67
2021/05/12 10:28:10;;;;;;;3.12;1.30;;;;;;;16.86;50.29;100667.61;1694647;82;20963;-65
2021/05/12 10:30:38;;;;;;;1.40;1.20;;;;;;;16.87;51.25;100666.64;1712256;82;21520;-65
2021/05/12 10:33:08;;;;;;;1.20;1.10;;;;;;;16.97;52.05;100670.14;1693008;82;20952;-64
2021/05/12 10:35:36;;;;;;;1.67;1.32;;;;;;;16.95;52.27;100667.52;1696858;82;21524;-64
2021/05/12 10:38:06;;;;;;;2.40;1.32;;;;;;;16.88;52.93;100668.38;1689982;82;21000;-64
2021/05/12 10:40:40;;;;;;;1.62;1.50;;;;;;;16.76;53.29;100662.40;1726544;81;20951;-66
2021/05/12 10:45:53;;;;;;;1.20;1.10;;;;;;;16.47;54.62;100679.97;1710357;81;21053;-63
2021/05/12 10:48:53;;;;;;;2.52;1.30;;;;;;;16.32;52.41;100677.22;1707766;81;26563;-64
2021/05/12 10:51:31;;;;;;;4.20;1.12;;;;;;;16.23;52.24;100673.70;1718509;80;21048;-64
2021/05/12 10:53:56;;;;;;;2.00;1.20;;;;;;;16.20;52.21;100673.89;1711984;81;20982;-64
2021/05/12 10:56:42;;;;;;;1.60;1.10;;;;;;;16.20;51.36;100680.65;1712941;81;20983;-69
2021/05/12 10:59:12;;;;;;;1.92;1.25;;;;;;;16.15;50.80;100666.54;1703661;81;21673;-68
2021/05/12 11:01:49;;;;;;;1.37;1.20;;;;;;;16.12;51.63;100669.43;1692487;81;22715;-70
2021/05/12 11:04:19;;;;;;;3.30;1.32;;;;;;;16.14;50.83;100674.27;1721126;81;21000;-67
2021/05/12 11:06:55;;;;;;;3.83;1.77;;;;;;;16.12;51.69;100681.60;1714043;80;20943;-69
2021/05/12 11:09:23;;;;;;;2.50;1.82;;;;;;;16.11;52.74;100677.16;1714014;81;21082;-69
2021/05/12 11:11:59;;;;;;;2.75;1.70;;;;;;;16.12;53.45;100670.78;1728123;81;20978;-69
2021/05/12 11:14:33;;;;;;;2.65;1.80;;;;;;;16.13;52.74;100674.73;1707541;81;21012;-68
2021/05/12 11:17:24;;;;;;;2.47;1.50;;;;;;;16.14;53.41;100675.62;1704244;81;21133;-68
2021/05/12 11:19:54;;;;;;;1.70;1.50;;;;;;;16.10;53.07;100680.83;1708915;81;21128;-68
2021/05/12 11:25:28;;;;;;;2.87;1.65;;;;;;;16.09;52.30;100672.33;1712789;81;21060;-69
2021/05/12 11:33:35;;;;;;;3.02;1.60;;;;;;;16.35;51.88;100675.29;1730651;81;20938;-69
2021/05/12 11:36:16;;;;;;;2.98;1.67;;;;;;;16.37;51.96;100672.01;1708687;81;20968;-67
2021/05/12 11:38:41;;;;;;;2.27;1.70;;;;;;;16.43;51.74;100680.63;1711023;81;20942;-68
2021/05/12 11:41:22;;;;;;;3.50;1.98;;;;;;;16.35;51.96;100676.64;1721333;81;22557;-68
2021/05/12 11:44:03;;;;;;;3.30;1.87;;;;;;;16.23;52.78;100676.41;1730694;81;21050;-68
2021/05/12 11:46:36;;;;;;;4.05;2.33;;;;;;;16.16;53.50;100684.51;1704651;81;20911;-69
2021/05/12 11:49:06;;;;;;;4.15;2.47;;;;;;;16.12;54.33;100675.70;1713343;81;21069;-68
2021/05/12 11:51:38;;;;;;;5.45;2.40;;;;;;;16.10;55.27;100680.33;1732102;81;20954;-68
2021/05/12 11:54:16;;;;;;;3.37;2.20;;;;;;;16.10;55.41;100674.06;1714700;80;22528;-63
2021/05/12 11:56:46;;;;;;;3.05;2.00;;;;;;;16.13;55.55;100675.23;1708431;81;21487;-64